Airfield :
LOGIN :

Register | Disclaimer

   EN    FR    IT 

 










Legend :    VFR   Marginal VFR   IFR   Intensive IFR   Very Intensive IFR
Visi :
Ceiling :
>= 8 km
>= 3000ft
5 to 8 km
1000 to 3000 ft
1500m to 5 km
500 to 1000 ft
800 to 1500m
200 to 500 ft
< 800m
< 200 ft
Symbols :   Thunderstorms  Fog  Heavy snow  Heavy precipitations  Wind > 20 kt
SIGMETs :     Misc.  Thunderstorms  Icing  Turbulence  Mountain Waves  Volcanic Ashes







- Airport Elevation : 228 ft
- IATA code : OPO


LPPR - Porto Fr. Sa Carneiro

CURRENT METAR :
  • 170730Z VRB02KT CAVOK 18/18 Q1022

EXPIRED METARs :
  • 170700Z 00000KT CAVOK 17/16 Q1021
  • 170630Z 00000KT CAVOK 15/15 Q1021
  • 170600Z 00000KT CAVOK 14/14 Q1021
  • 170530Z 00000KT 8000 NSC 15/15 Q1021
  • 170500Z 00000KT CAVOK 16/15 Q1021

TAF TAF LPPR
Valid from the 17 at 06:00 until the 18 at 06:00 UTC


170500Z 1706/1806 VRB03KT 9999 FEW008
PROB40 1706/1708 3000 BR BKN003
BECMG 1708/1711 34013KT FEW015
BECMG 1720/1723 VRB03KT 6000 SCT006
PROB30
TEMPO 1723/1806 0500 FG VV001
No reported NOTAMs for that airfield.



MET'MAP, your aeronautical weather chart ! - Copyright ORBIFLY December 2007 - Disclaimer

ORBIFLY MET'MAP TEAM :

Programming & Development : Alexandra Zaïnal
Concept & Development : Baudouin d'Aumeries
Co-Development & Prog : Marc-Olivier Méhu
Technical & hardware support : Manuel Goepfert

Contact : metmap@orbifly.com




SOURCES & CREDITS :

   NOAA